sensor_id;sensor_type;location;lat;lon;timestamp;pressure;altitude;pressure_sealevel;temperature;humidity
21449;BME280;10885;52.830;13.788;2024-03-02T05:30:10;100155.94;;;8.43;100.00
21449;BME280;10885;52.830;13.788;2024-03-02T05:35:12;100163.88;;;8.47;100.00
21449;BME280;10885;52.830;13.788;2024-03-02T05:40:15;100166.69;;;8.52;100.00
21449;BME280;10885;52.830;13.788;2024-03-02T05:45:18;100160.44;;;8.60;100.00
21449;BME280;10885;52.830;13.788;2024-03-02T05:50:20;100169.34;;;8.67;100.00
21449;BME280;10885;52.830;13.788;2024-03-02T05:55:23;100172.19;;;8.71;100.00
21449;BME280;10885;52.830;13.788;2024-03-02T06:00:25;100180.72;;;8.72;100.00
21449;BME280;10885;52.830;13.788;2024-03-02T06:05:28;100188.47;;;8.73;100.00
21449;BME280;10885;52.830;13.788;2024-03-02T06:10:31;100191.97;;;8.75;100.00
21449;BME280;10885;52.830;13.788;2024-03-02T06:15:33;100196.59;;;8.81;100.00
21449;BME280;10885;52.830;13.788;2024-03-02T06:20:38;100198.25;;;8.94;100.00
21449;BME280;10885;52.830;13.788;2024-03-02T06:25:41;100196.94;;;9.01;100.00
21449;BME280;10885;52.830;13.788;2024-03-02T06:30:43;100200.94;;;9.10;100.00
21449;BME280;10885;52.830;13.788;2024-03-02T06:35:46;100201.06;;;9.27;100.00
21449;BME280;10885;52.830;13.788;2024-03-02T06:40:49;100206.66;;;9.34;98.30
21449;BME280;10885;52.830;13.788;2024-03-02T06:45:51;100210.84;;;9.47;96.48
21449;BME280;10885;52.830;13.788;2024-03-02T06:50:54;100214.66;;;9.54;96.59
21449;BME280;10885;52.830;13.788;2024-03-02T06:55:58;100215.03;;;9.60;97.57
21449;BME280;10885;52.830;13.788;2024-03-02T07:08:07;100226.66;;;9.70;94.66
21449;BME280;10885;52.830;13.788;2024-03-02T07:13:10;100228.41;;;9.71;95.06
21449;BME280;10885;52.830;13.788;2024-03-02T07:18:12;100238.13;;;9.76;95.73
21449;BME280;10885;52.830;13.788;2024-03-02T07:23:15;100245.97;;;9.80;96.32
21449;BME280;10885;52.830;13.788;2024-03-02T07:28:18;100237.59;;;9.82;96.30
21449;BME280;10885;52.830;13.788;2024-03-02T07:33:20;100244.41;;;9.82;96.26
21449;BME280;10885;52.830;13.788;2024-03-02T07:38:25;100259.53;;;9.79;95.41
21449;BME280;10885;52.830;13.788;2024-03-02T07:43:28;100269.50;;;9.74;97.06
21449;BME280;10885;52.830;13.788;2024-03-02T07:48:31;100276.97;;;9.71;95.57
21449;BME280;10885;52.830;13.788;2024-03-02T07:53:33;100285.44;;;9.70;96.23
21449;BME280;10885;52.830;13.788;2024-03-02T07:58:36;100293.28;;;9.73;95.45
21449;BME280;10885;52.830;13.788;2024-03-02T08:03:39;100301.25;;;9.78;94.10
21449;BME280;10885;52.830;13.788;2024-03-02T08:08:41;100298.84;;;9.81;96.07
21449;BME280;10885;52.830;13.788;2024-03-02T08:13:44;100296.25;;;9.94;96.52
21449;BME280;10885;52.830;13.788;2024-03-02T08:18:50;100286.63;;;10.05;96.78
21449;BME280;10885;52.830;13.788;2024-03-02T08:23:53;100286.38;;;10.15;97.28
21449;BME280;10885;52.830;13.788;2024-03-02T08:28:55;100297.75;;;10.20;96.79
21449;BME280;10885;52.830;13.788;2024-03-02T08:33:58;100312.22;;;10.20;95.60
21449;BME280;10885;52.830;13.788;2024-03-02T08:39:01;100308.50;;;10.14;95.35
21449;BME280;10885;52.830;13.788;2024-03-02T08:44:05;100318.13;;;10.19;95.69
21449;BME280;10885;52.830;13.788;2024-03-02T08:49:09;100327.72;;;10.23;93.83
21449;BME280;10885;52.830;13.788;2024-03-02T08:54:11;100328.53;;;10.22;93.76
21449;BME280;10885;52.830;13.788;2024-03-02T08:59:14;100323.69;;;10.26;93.67
21449;BME280;10885;52.830;13.788;2024-03-02T09:04:16;100323.72;;;10.41;93.35
21449;BME280;10885;52.830;13.788;2024-03-02T09:09:19;100318.59;;;11.02;91.90
21449;BME280;10885;52.830;13.788;2024-03-02T09:14:22;100317.16;;;11.86;88.47
21449;BME280;10885;52.830;13.788;2024-03-02T09:19:24;100316.84;;;12.31;86.17
21449;BME280;10885;52.830;13.788;2024-03-02T09:24:27;100325.06;;;12.42;85.26
21449;BME280;10885;52.830;13.788;2024-03-02T09:29:30;100331.66;;;12.37;84.24
21449;BME280;10885;52.830;13.788;2024-03-02T09:34:33;100339.53;;;12.23;85.06
21449;BME280;10885;52.830;13.788;2024-03-02T09:39:36;100338.03;;;12.10;85.05
21449;BME280;10885;52.830;13.788;2024-03-02T09:44:39;100336.78;;;12.37;84.22
21449;BME280;10885;52.830;13.788;2024-03-02T09:49:41;100333.78;;;12.45;83.37
21449;BME280;10885;52.830;13.788;2024-03-02T09:54:53;100332.41;;;12.34;84.83
21449;BME280;10885;52.830;13.788;2024-03-02T09:59:56;100345.78;;;12.12;81.62
21449;BME280;10885;52.830;13.788;2024-03-02T10:04:58;100349.75;;;12.05;81.97
21449;BME280;10885;52.830;13.788;2024-03-02T10:10:15;100354.78;;;11.87;82.68
21449;BME280;10885;52.830;13.788;2024-03-02T10:15:23;100357.44;;;11.89;82.13
21449;BME280;10885;52.830;13.788;2024-03-02T10:20:27;100359.03;;;12.03;81.98
21449;BME280;10885;52.830;13.788;2024-03-02T10:25:34;100358.72;;;11.97;80.01
21449;BME280;10885;52.830;13.788;2024-03-02T10:30:52;100354.63;;;12.17;79.97
21449;BME280;10885;52.830;13.788;2024-03-02T10:35:56;100353.94;;;12.38;78.71
21449;BME280;10885;52.830;13.788;2024-03-02T10:40:59;100349.28;;;12.47;77.65
21449;BME280;10885;52.830;13.788;2024-03-02T10:46:03;100350.16;;;12.47;78.40
21449;BME280;10885;52.830;13.788;2024-03-02T10:51:06;100355.63;;;12.37;78.27
21449;BME280;10885;52.830;13.788;2024-03-02T10:56:09;100358.38;;;12.24;78.89
21449;BME280;10885;52.830;13.788;2024-03-02T11:01:13;100354.84;;;12.22;79.02
21449;BME280;10885;52.830;13.788;2024-03-02T11:06:16;100348.75;;;12.20;79.58
21449;BME280;10885;52.830;13.788;2024-03-02T11:11:23;100344.44;;;12.19;79.10
21449;BME280;10885;52.830;13.788;2024-03-02T11:16:34;100339.63;;;12.25;78.36
21449;BME280;10885;52.830;13.788;2024-03-02T11:21:38;100334.88;;;12.32;77.52
21449;BME280;10885;52.830;13.788;2024-03-02T11:26:41;100329.88;;;12.35;77.22
21449;BME280;10885;52.830;13.788;2024-03-02T11:32:00;100343.94;;;12.60;78.30
21449;BME280;10885;52.830;13.788;2024-03-02T11:37:03;100340.28;;;12.73;76.21
21449;BME280;10885;52.830;13.788;2024-03-02T11:42:07;100337.38;;;13.19;75.55
21449;BME280;10885;52.830;13.788;2024-03-02T11:47:14;100325.34;;;13.75;74.04
21449;BME280;10885;52.830;13.788;2024-03-02T11:52:17;100336.03;;;14.85;69.44
21449;BME280;10885;52.830;13.788;2024-03-02T11:57:21;100340.25;;;15.05;66.25
21449;BME280;10885;52.830;13.788;2024-03-02T12:02:28;100341.19;;;15.30;66.45
21449;BME280;10885;52.830;13.788;2024-03-02T12:07:32;100338.69;;;15.31;65.06
21449;BME280;10885;52.830;13.788;2024-03-02T12:12:34;100329.72;;;15.67;62.43
21449;BME280;10885;52.830;13.788;2024-03-02T12:17:37;100334.78;;;16.12;63.35
21449;BME280;10885;52.830;13.788;2024-03-02T12:22:40;100336.06;;;15.99;64.05
21449;BME280;10885;52.830;13.788;2024-03-02T12:27:43;100325.81;;;16.26;59.44
21449;BME280;10885;52.830;13.788;2024-03-02T12:32:46;100330.16;;;17.35;55.72
21449;BME280;10885;52.830;13.788;2024-03-02T12:37:50;100322.63;;;17.14;58.62
21449;BME280;10885;52.830;13.788;2024-03-02T12:42:53;100320.97;;;17.16;56.68
21449;BME280;10885;52.830;13.788;2024-03-02T12:47:55;100327.81;;;16.86;55.44
21449;BME280;10885;52.830;13.788;2024-03-02T12:52:58;100327.69;;;16.83;60.68
21449;BME280;10885;52.830;13.788;2024-03-02T12:58:01;100329.53;;;16.60;58.21
21449;BME280;10885;52.830;13.788;2024-03-02T13:03:06;100326.22;;;16.64;55.22
21449;BME280;10885;52.830;13.788;2024-03-02T13:08:09;100319.75;;;16.26;55.56
21449;BME280;10885;52.830;13.788;2024-03-02T13:13:12;100322.44;;;15.79;57.79
21449;BME280;10885;52.830;13.788;2024-03-02T13:18:17;100323.69;;;15.44;61.47
21449;BME280;10885;52.830;13.788;2024-03-02T13:23:20;100320.09;;;14.95;60.82
21449;BME280;10885;52.830;13.788;2024-03-02T13:28:23;100322.44;;;14.68;62.41
21449;BME280;10885;52.830;13.788;2024-03-02T13:33:26;100316.47;;;14.48;63.05
21449;BME280;10885;52.830;13.788;2024-03-02T13:38:28;100320.88;;;14.29;62.78
21449;BME280;10885;52.830;13.788;2024-03-02T13:43:31;100317.88;;;14.20;62.87
21449;BME280;10885;52.830;13.788;2024-03-02T13:48:34;100318.75;;;14.21;62.83
21449;BME280;10885;52.830;13.788;2024-03-02T13:53:37;100318.31;;;14.29;62.95
21449;BME280;10885;52.830;13.788;2024-03-02T13:58:39;100321.19;;;14.37;63.81
21449;BME280;10885;52.830;13.788;2024-03-02T14:03:42;100320.63;;;14.25;64.21
21449;BME280;10885;52.830;13.788;2024-03-02T14:08:45;100330.63;;;14.17;63.66
21449;BME280;10885;52.830;13.788;2024-03-02T14:13:47;100326.88;;;14.10;63.44
21449;BME280;10885;52.830;13.788;2024-03-02T14:18:56;100325.06;;;14.08;64.74
21449;BME280;10885;52.830;13.788;2024-03-02T14:23:58;100321.31;;;14.21;64.77
21449;BME280;10885;52.830;13.788;2024-03-02T14:29:01;100327.97;;;14.35;66.21
21449;BME280;10885;52.830;13.788;2024-03-02T14:34:04;100326.03;;;14.29;67.03
21449;BME280;10885;52.830;13.788;2024-03-02T14:39:07;100326.63;;;14.04;67.77
21449;BME280;10885;52.830;13.788;2024-03-02T14:44:12;100325.28;;;13.93;68.71
21449;BME280;10885;52.830;13.788;2024-03-02T14:49:15;100327.91;;;13.75;69.17
21449;BME280;10885;52.830;13.788;2024-03-02T14:54:17;100335.75;;;13.59;69.50
21449;BME280;10885;52.830;13.788;2024-03-02T14:59:20;100328.72;;;13.54;70.25
21449;BME280;10885;52.830;13.788;2024-03-02T15:04:23;100329.81;;;13.60;69.93
21449;BME280;10885;52.830;13.788;2024-03-02T15:09:25;100328.25;;;13.63;70.30
21449;BME280;10885;52.830;13.788;2024-03-02T15:14:28;100326.50;;;13.62;70.02
21449;BME280;10885;52.830;13.788;2024-03-02T15:19:31;100320.34;;;13.78;70.77
21449;BME280;10885;52.830;13.788;2024-03-02T15:24:33;100330.41;;;13.93;70.49
21449;BME280;10885;52.830;13.788;2024-03-02T15:29:36;100330.72;;;13.99;69.70
21449;BME280;10885;52.830;13.788;2024-03-02T15:34:39;100333.75;;;13.90;69.35
21449;BME280;10885;52.830;13.788;2024-03-02T15:39:42;100335.63;;;13.56;69.80
21449;BME280;10885;52.830;13.788;2024-03-02T15:44:46;100327.34;;;13.24;70.99
21449;BME280;10885;52.830;13.788;2024-03-02T15:49:49;100326.53;;;13.07;71.72
21449;BME280;10885;52.830;13.788;2024-03-02T15:54:52;100323.75;;;13.02;72.21
21449;BME280;10885;52.830;13.788;2024-03-02T15:59:55;100325.63;;;12.88;72.76
21449;BME280;10885;52.830;13.788;2024-03-02T16:04:57;100320.19;;;12.82;72.82
21449;BME280;10885;52.830;13.788;2024-03-02T16:10:00;100311.47;;;12.79;72.92
21449;BME280;10885;52.830;13.788;2024-03-02T16:15:07;100325.69;;;12.72;73.21
21449;BME280;10885;52.830;13.788;2024-03-02T16:20:11;100323.72;;;12.66;73.54
21449;BME280;10885;52.830;13.788;2024-03-02T16:25:14;100324.41;;;12.64;73.84
21449;BME280;10885;52.830;13.788;2024-03-02T16:30:17;100324.22;;;12.59;74.24
21449;BME280;10885;52.830;13.788;2024-03-02T16:35:21;100328.31;;;12.55;74.62
21449;BME280;10885;52.830;13.788;2024-03-02T16:40:23;100332.19;;;12.47;75.06
21449;BME280;10885;52.830;13.788;2024-03-02T16:45:26;100331.97;;;12.43;75.86
21449;BME280;10885;52.830;13.788;2024-03-02T16:50:29;100348.88;;;12.39;76.16
21449;BME280;10885;52.830;13.788;2024-03-02T16:55:31;100343.53;;;12.34;76.32
21449;BME280;10885;52.830;13.788;2024-03-02T17:00:34;100351.94;;;12.32;77.37
21449;BME280;10885;52.830;13.788;2024-03-02T17:05:37;100350.19;;;12.31;77.01
21449;BME280;10885;52.830;13.788;2024-03-02T17:10:39;100354.38;;;12.29;77.53
21449;BME280;10885;52.830;13.788;2024-03-02T17:15:42;100357.50;;;12.23;78.53
21449;BME280;10885;52.830;13.788;2024-03-02T17:20:46;100354.53;;;12.15;79.49
21449;BME280;10885;52.830;13.788;2024-03-02T17:25:48;100362.00;;;12.11;80.83
21449;BME280;10885;52.830;13.788;2024-03-02T17:30:52;100370.16;;;12.04;82.22
21449;BME280;10885;52.830;13.788;2024-03-02T17:35:55;100376.69;;;11.97;82.36
21449;BME280;10885;52.830;13.788;2024-03-02T17:40:59;100376.34;;;11.91;83.28
21449;BME280;10885;52.830;13.788;2024-03-02T17:46:03;100374.44;;;11.87;83.86
21449;BME280;10885;52.830;13.788;2024-03-02T17:51:06;100373.28;;;11.82;84.26
21449;BME280;10885;52.830;13.788;2024-03-02T17:56:10;100374.75;;;11.77;83.96
21449;BME280;10885;52.830;13.788;2024-03-02T18:01:14;100380.56;;;11.74;84.50
21449;BME280;10885;52.830;13.788;2024-03-02T18:06:18;100382.34;;;11.75;84.83
21449;BME280;10885;52.830;13.788;2024-03-02T18:11:20;100382.44;;;11.77;84.90
21449;BME280;10885;52.830;13.788;2024-03-02T18:16:26;100373.69;;;11.73;85.65
21449;BME280;10885;52.830;13.788;2024-03-02T18:21:29;100372.81;;;11.72;85.76
21449;BME280;10885;52.830;13.788;2024-03-02T18:26:32;100374.25;;;11.67;86.19
21449;BME280;10885;52.830;13.788;2024-03-02T18:31:36;100371.19;;;11.58;85.84
21449;BME280;10885;52.830;13.788;2024-03-02T18:36:39;100372.63;;;11.53;86.33
21449;BME280;10885;52.830;13.788;2024-03-02T18:41:42;100371.41;;;11.46;86.66
21449;BME280;10885;52.830;13.788;2024-03-02T18:46:44;100375.50;;;11.43;85.90
21449;BME280;10885;52.830;13.788;2024-03-02T18:51:50;100372.75;;;11.40;86.24
21449;BME280;10885;52.830;13.788;2024-03-02T18:56:53;100358.84;;;11.34;86.80
21449;BME280;10885;52.830;13.788;2024-03-02T19:01:55;100366.25;;;11.30;87.01
21449;BME280;10885;52.830;13.788;2024-03-02T19:06:58;100365.78;;;11.22;86.93
21449;BME280;10885;52.830;13.788;2024-03-02T19:12:01;100362.09;;;11.17;87.18
21449;BME280;10885;52.830;13.788;2024-03-02T19:17:03;100361.16;;;11.15;87.71
21449;BME280;10885;52.830;13.788;2024-03-02T19:22:06;100360.09;;;11.11;86.88
21449;BME280;10885;52.830;13.788;2024-03-02T19:27:13;100358.94;;;11.06;87.18
21449;BME280;10885;52.830;13.788;2024-03-02T19:32:16;100362.84;;;11.00;86.88
21449;BME280;10885;52.830;13.788;2024-03-02T19:37:22;100359.94;;;10.93;87.54
21449;BME280;10885;52.830;13.788;2024-03-02T19:42:25;100367.44;;;10.90;87.57
21449;BME280;10885;52.830;13.788;2024-03-02T19:47:28;100352.69;;;10.86;87.90
21449;BME280;10885;52.830;13.788;2024-03-02T19:52:34;100352.63;;;10.70;88.55
21449;BME280;10885;52.830;13.788;2024-03-02T19:57:37;100355.81;;;10.66;88.10
21449;BME280;10885;52.830;13.788;2024-03-02T20:02:46;100348.56;;;10.59;89.51
21449;BME280;10885;52.830;13.788;2024-03-02T20:07:49;100350.09;;;10.55;88.43
21449;BME280;10885;52.830;13.788;2024-03-02T20:12:52;100351.22;;;10.45;89.46
21449;BME280;10885;52.830;13.788;2024-03-02T20:17:54;100350.88;;;10.39;90.09
21449;BME280;10885;52.830;13.788;2024-03-02T20:22:57;100349.81;;;10.35;90.65
21449;BME280;10885;52.830;13.788;2024-03-02T20:28:00;100348.03;;;10.34;90.74
21449;BME280;10885;52.830;13.788;2024-03-02T20:33:02;100350.50;;;10.33;91.12
21449;BME280;10885;52.830;13.788;2024-03-02T20:38:05;100353.50;;;10.41;91.13
21449;BME280;10885;52.830;13.788;2024-03-02T20:43:08;100353.44;;;10.39;91.87
21449;BME280;10885;52.830;13.788;2024-03-02T20:48:10;100351.66;;;10.38;91.69
21449;BME280;10885;52.830;13.788;2024-03-02T20:53:13;100354.94;;;10.35;91.47
21449;BME280;10885;52.830;13.788;2024-03-02T20:58:16;100341.44;;;10.38;91.48
21449;BME280;10885;52.830;13.788;2024-03-02T21:03:18;100334.00;;;10.43;91.07
21449;BME280;10885;52.830;13.788;2024-03-02T21:08:21;100343.88;;;10.36;91.88
21449;BME280;10885;52.830;13.788;2024-03-02T21:13:23;100346.97;;;10.31;91.69
21449;BME280;10885;52.830;13.788;2024-03-02T21:18:26;100338.25;;;10.27;91.38
21449;BME280;10885;52.830;13.788;2024-03-02T21:23:29;100337.97;;;10.23;91.72
21449;BME280;10885;52.830;13.788;2024-03-02T21:28:31;100338.41;;;10.15;91.53
21449;BME280;10885;52.830;13.788;2024-03-02T21:33:34;100338.84;;;10.08;91.88
21449;BME280;10885;52.830;13.788;2024-03-02T21:38:37;100340.94;;;10.01;91.45
21449;BME280;10885;52.830;13.788;2024-03-02T21:43:40;100339.97;;;9.99;91.76
21449;BME280;10885;52.830;13.788;2024-03-02T21:48:44;100338.81;;;9.93;91.83
21449;BME280;10885;52.830;13.788;2024-03-02T21:53:46;100344.75;;;9.79;92.15
21449;BME280;10885;52.830;13.788;2024-03-02T21:58:49;100338.28;;;9.71;92.26
21449;BME280;10885;52.830;13.788;2024-03-02T22:03:53;100333.69;;;9.65;92.49
21449;BME280;10885;52.830;13.788;2024-03-02T22:08:55;100331.84;;;9.63;93.27
21449;BME280;10885;52.830;13.788;2024-03-02T22:13:58;100321.88;;;9.67;93.02
21449;BME280;10885;52.830;13.788;2024-03-02T22:19:01;100321.44;;;9.60;92.50
21449;BME280;10885;52.830;13.788;2024-03-02T22:24:04;100322.63;;;9.51;92.84
21449;BME280;10885;52.830;13.788;2024-03-02T22:29:06;100315.19;;;9.41;93.33
